SCRIPT_RESULTS Banner
TAF for LQSA

by Dr. Günther Eichhorn

TAF for LQSA provided by aerobaticsweb.org
Current time: Saturday, 28 May, 2022, 20:40 UTC
(This may take a minute, please be patient)


The most recent TAF forecast from LQSA in our system was generated at
2022/05/28 18:08
The forecast is:
LQSA 2022/05/28 18:08
TAF LQSA 281700Z 2818/2918 29005KT 9999 SCT025 BKN040 TX17/2915Z TN08/2904Z PROB30
TEMPO 2818/2821 35012KT 4000 SHRA FEW010 FEW035TCU BKN050
TEMPO 2903/2915 5000 RA BKN012 BKN035 PROB30
TEMPO 2906/2912 TSRA FEW030CB BKN040



access provided by Dr. Guenther Eichhorn at aerobaticsweb.org